sensor_id;sensor_type;location;lat;lon;timestamp;P1;durP1;ratioP1;P2;durP2;ratioP2
50651;SDS011;61429;52.086;5.240;2022-07-29T00:02:32;3.4;;;1.9;;
50651;SDS011;61429;52.086;5.240;2022-07-29T00:04:19;2.7;;;1.9;;
50651;SDS011;61429;52.086;5.240;2022-07-29T00:06:06;4.41;;;2.1;;
50651;SDS011;61429;52.086;5.240;2022-07-29T00:07:53;4.0;;;2.1;;
50651;SDS011;61429;52.086;5.240;2022-07-29T00:09:41;3.1;;;1.9;;
50651;SDS011;61429;52.086;5.240;2022-07-29T00:11:27;4.2;;;2.31;;
50651;SDS011;61429;52.086;5.240;2022-07-29T00:15:01;4.3;;;2.1;;
50651;SDS011;61429;52.086;5.240;2022-07-29T00:16:48;2.0;;;1.8;;
50651;SDS011;61429;52.086;5.240;2022-07-29T00:18:34;2.7;;;2.0;;
50651;SDS011;61429;52.086;5.240;2022-07-29T00:20:20;3.3;;;2.0;;
50651;SDS011;61429;52.086;5.240;2022-07-29T00:22:06;3.3;;;1.9;;
50651;SDS011;61429;52.086;5.240;2022-07-29T00:27:26;3.2;;;2.0;;
50651;SDS011;61429;52.086;5.240;2022-07-29T00:29:12;4.2;;;2.1;;
50651;SDS011;61429;52.086;5.240;2022-07-29T00:30:58;4.2;;;1.9;;
50651;SDS011;61429;52.086;5.240;2022-07-29T00:32:44;3.2;;;1.9;;
50651;SDS011;61429;52.086;5.240;2022-07-29T00:37:33;3.6;;;2.0;;
50651;SDS011;61429;52.086;5.240;2022-07-29T00:39:19;3.9;;;2.0;;
50651;SDS011;61429;52.086;5.240;2022-07-29T00:41:05;3.2;;;2.0;;
50651;SDS011;61429;52.086;5.240;2022-07-29T00:42:51;4.91;;;2.1;;
50651;SDS011;61429;52.086;5.240;2022-07-29T00:44:39;2.5;;;1.8;;
50651;SDS011;61429;52.086;5.240;2022-07-29T00:48:12;2.9;;;1.8;;
50651;SDS011;61429;52.086;5.240;2022-07-29T00:49:59;3.8;;;2.0;;
50651;SDS011;61429;52.086;5.240;2022-07-29T00:51:46;5.3;;;2.0;;
50651;SDS011;61429;52.086;5.240;2022-07-29T00:53:35;5.3;;;2.0;;
50651;SDS011;61429;52.086;5.240;2022-07-29T00:55:22;3.3;;;2.21;;
50651;SDS011;61429;52.086;5.240;2022-07-29T00:58:57;2.7;;;1.9;;
50651;SDS011;61429;52.086;5.240;2022-07-29T01:00:44;2.1;;;1.7;;
50651;SDS011;61429;52.086;5.240;2022-07-29T01:02:31;2.31;;;1.7;;
50651;SDS011;61429;52.086;5.240;2022-07-29T01:04:18;4.3;;;2.21;;
50651;SDS011;61429;52.086;5.240;2022-07-29T01:06:05;2.5;;;1.8;;
50651;SDS011;61429;52.086;5.240;2022-07-29T01:07:53;2.5;;;1.8;;
50651;SDS011;61429;52.086;5.240;2022-07-29T01:11:32;3.4;;;2.0;;
50651;SDS011;61429;52.086;5.240;2022-07-29T01:13:20;3.6;;;1.9;;
50651;SDS011;61429;52.086;5.240;2022-07-29T01:15:07;3.7;;;1.9;;
50651;SDS011;61429;52.086;5.240;2022-07-29T01:16:56;3.6;;;2.1;;
50651;SDS011;61429;52.086;5.240;2022-07-29T01:19:00;5.11;;;2.1;;
50651;SDS011;61429;52.086;5.240;2022-07-29T01:21:07;2.9;;;1.9;;
50651;SDS011;61429;52.086;5.240;2022-07-29T01:24:15;3.8;;;1.8;;
50651;SDS011;61429;52.086;5.240;2022-07-29T01:26:52;2.1;;;1.8;;
50651;SDS011;61429;52.086;5.240;2022-07-29T01:28:47;4.0;;;2.0;;
50651;SDS011;61429;52.086;5.240;2022-07-29T01:30:45;2.8;;;2.0;;
50651;SDS011;61429;52.086;5.240;2022-07-29T01:34:27;3.0;;;1.8;;
50651;SDS011;61429;52.086;5.240;2022-07-29T01:36:22;2.8;;;1.7;;
50651;SDS011;61429;52.086;5.240;2022-07-29T01:38:13;4.1;;;1.7;;
50651;SDS011;61429;52.086;5.240;2022-07-29T01:40:08;4.2;;;1.9;;
50651;SDS011;61429;52.086;5.240;2022-07-29T01:42:10;3.0;;;1.9;;
50651;SDS011;61429;52.086;5.240;2022-07-29T01:44:05;4.0;;;1.8;;
50651;SDS011;61429;52.086;5.240;2022-07-29T01:46:01;4.41;;;1.8;;
50651;SDS011;61429;52.086;5.240;2022-07-29T01:47:54;3.4;;;1.9;;
50651;SDS011;61429;52.086;5.240;2022-07-29T01:49:51;3.9;;;1.8;;
50651;SDS011;61429;52.086;5.240;2022-07-29T01:51:43;3.9;;;1.8;;
50651;SDS011;61429;52.086;5.240;2022-07-29T01:55:38;2.6;;;1.9;;
50651;SDS011;61429;52.086;5.240;2022-07-29T01:57:30;4.41;;;2.1;;
50651;SDS011;61429;52.086;5.240;2022-07-29T01:59:20;2.7;;;2.0;;
50651;SDS011;61429;52.086;5.240;2022-07-29T02:01:07;2.4;;;1.8;;
50651;SDS011;61429;52.086;5.240;2022-07-29T02:02:56;2.6;;;1.9;;
50651;SDS011;61429;52.086;5.240;2022-07-29T02:04:48;2.8;;;1.7;;
50651;SDS011;61429;52.086;5.240;2022-07-29T02:06:37;3.6;;;2.0;;
50651;SDS011;61429;52.086;5.240;2022-07-29T02:08:26;2.8;;;1.8;;
50651;SDS011;61429;52.086;5.240;2022-07-29T02:12:08;3.9;;;2.1;;
50651;SDS011;61429;52.086;5.240;2022-07-29T02:13:58;2.6;;;1.8;;
50651;SDS011;61429;52.086;5.240;2022-07-29T02:15:47;3.4;;;1.8;;
50651;SDS011;61429;52.086;5.240;2022-07-29T02:17:39;2.5;;;1.9;;
50651;SDS011;61429;52.086;5.240;2022-07-29T02:19:30;3.4;;;1.9;;
50651;SDS011;61429;52.086;5.240;2022-07-29T02:21:19;3.2;;;2.0;;
50651;SDS011;61429;52.086;5.240;2022-07-29T02:23:10;3.7;;;1.9;;
50651;SDS011;61429;52.086;5.240;2022-07-29T02:26:47;2.4;;;2.0;;
50651;SDS011;61429;52.086;5.240;2022-07-29T02:28:36;3.2;;;1.9;;
50651;SDS011;61429;52.086;5.240;2022-07-29T02:30:23;3.4;;;2.0;;
50651;SDS011;61429;52.086;5.240;2022-07-29T02:32:11;2.7;;;1.9;;
50651;SDS011;61429;52.086;5.240;2022-07-29T02:34:02;2.8;;;1.9;;
50651;SDS011;61429;52.086;5.240;2022-07-29T02:35:52;3.5;;;2.0;;
50651;SDS011;61429;52.086;5.240;2022-07-29T02:37:40;4.2;;;2.1;;
50651;SDS011;61429;52.086;5.240;2022-07-29T02:41:18;3.2;;;1.9;;
50651;SDS011;61429;52.086;5.240;2022-07-29T02:43:08;4.0;;;2.1;;
50651;SDS011;61429;52.086;5.240;2022-07-29T02:44:56;3.0;;;2.0;;
50651;SDS011;61429;52.086;5.240;2022-07-29T02:46:45;3.3;;;2.0;;
50651;SDS011;61429;52.086;5.240;2022-07-29T02:48:37;2.9;;;1.9;;
50651;SDS011;61429;52.086;5.240;2022-07-29T02:50:29;3.3;;;1.9;;
50651;SDS011;61429;52.086;5.240;2022-07-29T02:52:22;3.7;;;1.9;;
50651;SDS011;61429;52.086;5.240;2022-07-29T02:56:10;4.3;;;2.1;;
50651;SDS011;61429;52.086;5.240;2022-07-29T02:58:01;2.8;;;2.0;;
50651;SDS011;61429;52.086;5.240;2022-07-29T02:59:52;4.1;;;2.21;;
50651;SDS011;61429;52.086;5.240;2022-07-29T03:01:43;4.5;;;2.21;;
50651;SDS011;61429;52.086;5.240;2022-07-29T03:03:32;2.21;;;1.9;;
50651;SDS011;61429;52.086;5.240;2022-07-29T03:05:21;3.5;;;2.0;;
50651;SDS011;61429;52.086;5.240;2022-07-29T03:07:08;4.3;;;2.4;;
50651;SDS011;61429;52.086;5.240;2022-07-29T03:08:58;3.5;;;2.0;;
50651;SDS011;61429;52.086;5.240;2022-07-29T03:12:35;3.9;;;2.4;;
50651;SDS011;61429;52.086;5.240;2022-07-29T03:14:22;3.2;;;2.21;;
50651;SDS011;61429;52.086;5.240;2022-07-29T03:16:10;3.2;;;2.21;;
50651;SDS011;61429;52.086;5.240;2022-07-29T03:17:59;2.31;;;2.1;;
50651;SDS011;61429;52.086;5.240;2022-07-29T03:19:45;4.1;;;2.4;;
50651;SDS011;61429;52.086;5.240;2022-07-29T03:21:32;2.9;;;2.21;;
50651;SDS011;61429;52.086;5.240;2022-07-29T03:25:10;3.0;;;2.1;;
50651;SDS011;61429;52.086;5.240;2022-07-29T03:26:59;3.4;;;2.1;;
50651;SDS011;61429;52.086;5.240;2022-07-29T03:28:46;3.5;;;2.21;;
50651;SDS011;61429;52.086;5.240;2022-07-29T03:30:33;3.9;;;2.21;;
50651;SDS011;61429;52.086;5.240;2022-07-29T03:32:20;3.2;;;2.31;;
50651;SDS011;61429;52.086;5.240;2022-07-29T03:34:06;3.0;;;2.21;;
50651;SDS011;61429;52.086;5.240;2022-07-29T03:37:38;3.7;;;2.4;;
50651;SDS011;61429;52.086;5.240;2022-07-29T03:39:25;4.3;;;2.4;;
50651;SDS011;61429;52.086;5.240;2022-07-29T03:41:16;3.1;;;2.31;;
50651;SDS011;61429;52.086;5.240;2022-07-29T03:43:06;3.4;;;2.4;;
50651;SDS011;61429;52.086;5.240;2022-07-29T03:44:56;4.0;;;2.5;;
50651;SDS011;61429;52.086;5.240;2022-07-29T03:46:45;3.1;;;2.5;;
50651;SDS011;61429;52.086;5.240;2022-07-29T03:50:25;3.2;;;2.5;;
50651;SDS011;61429;52.086;5.240;2022-07-29T03:52:12;4.2;;;2.5;;
50651;SDS011;61429;52.086;5.240;2022-07-29T03:54:00;4.2;;;2.5;;
50651;SDS011;61429;52.086;5.240;2022-07-29T03:55:50;3.9;;;2.4;;
50651;SDS011;61429;52.086;5.240;2022-07-29T03:57:40;3.2;;;2.4;;
50651;SDS011;61429;52.086;5.240;2022-07-29T03:59:28;4.2;;;2.7;;
50651;SDS011;61429;52.086;5.240;2022-07-29T04:01:18;4.41;;;2.7;;
50651;SDS011;61429;52.086;5.240;2022-07-29T04:04:55;5.6;;;2.7;;
50651;SDS011;61429;52.086;5.240;2022-07-29T04:06:42;3.5;;;2.31;;
50651;SDS011;61429;52.086;5.240;2022-07-29T04:08:31;3.5;;;2.31;;
50651;SDS011;61429;52.086;5.240;2022-07-29T04:10:18;3.3;;;2.6;;
50651;SDS011;61429;52.086;5.240;2022-07-29T04:12:05;4.8;;;2.7;;
50651;SDS011;61429;52.086;5.240;2022-07-29T04:13:52;3.5;;;2.9;;
50651;SDS011;61429;52.086;5.240;2022-07-29T04:17:25;5.4;;;2.7;;
50651;SDS011;61429;52.086;5.240;2022-07-29T04:19:11;3.9;;;2.8;;
50651;SDS011;61429;52.086;5.240;2022-07-29T04:21:00;4.7;;;2.9;;
50651;SDS011;61429;52.086;5.240;2022-07-29T04:22:47;4.3;;;2.8;;
50651;SDS011;61429;52.086;5.240;2022-07-29T04:24:34;4.61;;;2.9;;
50651;SDS011;61429;52.086;5.240;2022-07-29T04:28:08;4.8;;;3.0;;
50651;SDS011;61429;52.086;5.240;2022-07-29T04:29:56;3.9;;;2.7;;
50651;SDS011;61429;52.086;5.240;2022-07-29T04:31:42;5.11;;;2.4;;
50651;SDS011;61429;52.086;5.240;2022-07-29T04:33:29;3.3;;;2.7;;
50651;SDS011;61429;52.086;5.240;2022-07-29T04:35:15;4.41;;;2.5;;
50651;SDS011;61429;52.086;5.240;2022-07-29T04:37:01;4.2;;;2.8;;
50651;SDS011;61429;52.086;5.240;2022-07-29T04:40:36;4.7;;;2.7;;
50651;SDS011;61429;52.086;5.240;2022-07-29T04:42:22;3.7;;;2.7;;
50651;SDS011;61429;52.086;5.240;2022-07-29T04:44:08;3.2;;;2.6;;
50651;SDS011;61429;52.086;5.240;2022-07-29T04:45:54;4.3;;;2.7;;
50651;SDS011;61429;52.086;5.240;2022-07-29T04:47:40;4.0;;;2.6;;
50651;SDS011;61429;52.086;5.240;2022-07-29T04:49:28;4.8;;;2.7;;
50651;SDS011;61429;52.086;5.240;2022-07-29T04:53:02;4.41;;;2.7;;
50651;SDS011;61429;52.086;5.240;2022-07-29T04:54:48;3.9;;;2.6;;
50651;SDS011;61429;52.086;5.240;2022-07-29T04:56:35;3.2;;;2.7;;
50651;SDS011;61429;52.086;5.240;2022-07-29T04:58:23;4.7;;;2.6;;
50651;SDS011;61429;52.086;5.240;2022-07-29T05:00:10;3.6;;;2.6;;
50651;SDS011;61429;52.086;5.240;2022-07-29T05:01:57;4.3;;;2.9;;
50651;SDS011;61429;52.086;5.240;2022-07-29T05:05:30;4.41;;;2.5;;
50651;SDS011;61429;52.086;5.240;2022-07-29T05:07:17;4.61;;;2.7;;
50651;SDS011;61429;52.086;5.240;2022-07-29T05:09:03;4.2;;;2.8;;
50651;SDS011;61429;52.086;5.240;2022-07-29T05:10:51;4.61;;;2.5;;
50651;SDS011;61429;52.086;5.240;2022-07-29T05:12:37;3.9;;;2.4;;
50651;SDS011;61429;52.086;5.240;2022-07-29T05:16:10;4.5;;;2.5;;
50651;SDS011;61429;52.086;5.240;2022-07-29T05:17:56;3.6;;;2.6;;
50651;SDS011;61429;52.086;5.240;2022-07-29T05:19:42;4.5;;;2.8;;
50651;SDS011;61429;52.086;5.240;2022-07-29T05:21:30;3.3;;;2.5;;
50651;SDS011;61429;52.086;5.240;2022-07-29T05:23:16;3.7;;;2.7;;
50651;SDS011;61429;52.086;5.240;2022-07-29T05:25:03;5.6;;;2.9;;
50651;SDS011;61429;52.086;5.240;2022-07-29T05:28:36;5.0;;;2.7;;
50651;SDS011;61429;52.086;5.240;2022-07-29T05:30:24;4.3;;;2.7;;
50651;SDS011;61429;52.086;5.240;2022-07-29T05:32:11;5.2;;;2.5;;
50651;SDS011;61429;52.086;5.240;2022-07-29T05:33:58;4.1;;;2.6;;
50651;SDS011;61429;52.086;5.240;2022-07-29T05:35:44;3.8;;;2.7;;
50651;SDS011;61429;52.086;5.240;2022-07-29T05:37:30;3.7;;;2.7;;
50651;SDS011;61429;52.086;5.240;2022-07-29T05:41:03;3.3;;;2.6;;
50651;SDS011;61429;52.086;5.240;2022-07-29T05:42:50;4.8;;;2.9;;
50651;SDS011;61429;52.086;5.240;2022-07-29T05:44:38;3.1;;;2.8;;
50651;SDS011;61429;52.086;5.240;2022-07-29T05:46:25;3.6;;;2.7;;
50651;SDS011;61429;52.086;5.240;2022-07-29T05:48:12;3.5;;;2.5;;
50651;SDS011;61429;52.086;5.240;2022-07-29T05:51:44;4.61;;;2.5;;
50651;SDS011;61429;52.086;5.240;2022-07-29T05:53:30;5.8;;;2.7;;
50651;SDS011;61429;52.086;5.240;2022-07-29T05:55:18;4.5;;;2.9;;
50651;SDS011;61429;52.086;5.240;2022-07-29T05:57:05;3.4;;;2.8;;
50651;SDS011;61429;52.086;5.240;2022-07-29T05:58:52;4.3;;;2.7;;
50651;SDS011;61429;52.086;5.240;2022-07-29T06:00:39;4.3;;;2.5;;
50651;SDS011;61429;52.086;5.240;2022-07-29T06:04:12;4.1;;;2.8;;
50651;SDS011;61429;52.086;5.240;2022-07-29T06:05:59;4.5;;;2.9;;
50651;SDS011;61429;52.086;5.240;2022-07-29T06:07:46;4.8;;;2.8;;
50651;SDS011;61429;52.086;5.240;2022-07-29T06:09:32;5.2;;;3.2;;
50651;SDS011;61429;52.086;5.240;2022-07-29T06:11:19;4.8;;;3.2;;
50651;SDS011;61429;52.086;5.240;2022-07-29T06:13:05;4.41;;;2.9;;
50651;SDS011;61429;52.086;5.240;2022-07-29T06:16:37;5.2;;;2.6;;
50651;SDS011;61429;52.086;5.240;2022-07-29T06:18:24;6.4;;;2.8;;
50651;SDS011;61429;52.086;5.240;2022-07-29T06:20:10;4.2;;;2.9;;
50651;SDS011;61429;52.086;5.240;2022-07-29T06:21:57;4.0;;;2.6;;
50651;SDS011;61429;52.086;5.240;2022-07-29T06:23:45;4.3;;;2.7;;
50651;SDS011;61429;52.086;5.240;2022-07-29T06:27:20;4.5;;;2.8;;
50651;SDS011;61429;52.086;5.240;2022-07-29T06:29:06;3.4;;;2.7;;
50651;SDS011;61429;52.086;5.240;2022-07-29T06:32:42;3.5;;;2.5;;
50651;SDS011;61429;52.086;5.240;2022-07-29T06:34:28;4.61;;;2.7;;
50651;SDS011;61429;52.086;5.240;2022-07-29T06:36:15;4.8;;;2.8;;
50651;SDS011;61429;52.086;5.240;2022-07-29T06:40:59;4.5;;;2.6;;
50651;SDS011;61429;52.086;5.240;2022-07-29T06:42:46;6.5;;;2.7;;
50651;SDS011;61429;52.086;5.240;2022-07-29T06:44:33;4.41;;;2.7;;
50651;SDS011;61429;52.086;5.240;2022-07-29T06:48:08;4.2;;;2.7;;
50651;SDS011;61429;52.086;5.240;2022-07-29T06:49:55;4.61;;;2.6;;
50651;SDS011;61429;52.086;5.240;2022-07-29T06:51:41;3.9;;;2.7;;
50651;SDS011;61429;52.086;5.240;2022-07-29T06:53:28;4.0;;;2.6;;
50651;SDS011;61429;52.086;5.240;2022-07-29T06:55:16;3.8;;;2.6;;
50651;SDS011;61429;52.086;5.240;2022-07-29T06:57:02;3.5;;;2.5;;
50651;SDS011;61429;52.086;5.240;2022-07-29T07:00:35;6.6;;;2.7;;
50651;SDS011;61429;52.086;5.240;2022-07-29T07:02:21;3.3;;;2.7;;
50651;SDS011;61429;52.086;5.240;2022-07-29T07:04:08;7.4;;;3.6;;
50651;SDS011;61429;52.086;5.240;2022-07-29T07:05:56;6.6;;;2.5;;
50651;SDS011;61429;52.086;5.240;2022-07-29T07:07:43;3.1;;;2.7;;
50651;SDS011;61429;52.086;5.240;2022-07-29T07:11:15;3.8;;;3.1;;
50651;SDS011;61429;52.086;5.240;2022-07-29T07:13:01;5.5;;;3.1;;
50651;SDS011;61429;52.086;5.240;2022-07-29T07:14:49;3.6;;;2.7;;
50651;SDS011;61429;52.086;5.240;2022-07-29T07:16:35;3.1;;;2.6;;
50651;SDS011;61429;52.086;5.240;2022-07-29T07:18:22;3.3;;;2.7;;
50651;SDS011;61429;52.086;5.240;2022-07-29T07:20:08;4.91;;;2.7;;
50651;SDS011;61429;52.086;5.240;2022-07-29T07:23:42;4.3;;;2.6;;
50651;SDS011;61429;52.086;5.240;2022-07-29T07:25:28;3.7;;;2.4;;
50651;SDS011;61429;52.086;5.240;2022-07-29T07:27:14;5.5;;;2.7;;
50651;SDS011;61429;52.086;5.240;2022-07-29T07:29:00;4.1;;;2.7;;
50651;SDS011;61429;52.086;5.240;2022-07-29T07:30:47;5.6;;;2.8;;
50651;SDS011;61429;52.086;5.240;2022-07-29T07:32:34;5.0;;;3.1;;
50651;SDS011;61429;52.086;5.240;2022-07-29T07:36:07;3.4;;;2.8;;
50651;SDS011;61429;52.086;5.240;2022-07-29T07:37:54;4.41;;;2.9;;
50651;SDS011;61429;52.086;5.240;2022-07-29T07:39:41;5.3;;;3.0;;
50651;SDS011;61429;52.086;5.240;2022-07-29T07:43:14;4.7;;;2.8;;
50651;SDS011;61429;52.086;5.240;2022-07-29T07:46:46;5.3;;;3.3;;
50651;SDS011;61429;52.086;5.240;2022-07-29T07:48:34;4.3;;;2.9;;
50651;SDS011;61429;52.086;5.240;2022-07-29T07:50:21;5.8;;;2.9;;
50651;SDS011;61429;52.086;5.240;2022-07-29T07:52:07;5.2;;;2.9;;
50651;SDS011;61429;52.086;5.240;2022-07-29T07:53:54;3.4;;;2.9;;
50651;SDS011;61429;52.086;5.240;2022-07-29T07:55:42;5.3;;;3.0;;
50651;SDS011;61429;52.086;5.240;2022-07-29T07:59:15;4.0;;;2.9;;
50651;SDS011;61429;52.086;5.240;2022-07-29T08:01:02;4.2;;;2.5;;
50651;SDS011;61429;52.086;5.240;2022-07-29T08:02:49;5.9;;;3.0;;
50651;SDS011;61429;52.086;5.240;2022-07-29T08:04:36;3.7;;;2.7;;
50651;SDS011;61429;52.086;5.240;2022-07-29T08:06:24;3.9;;;2.7;;
50651;SDS011;61429;52.086;5.240;2022-07-29T08:08:11;5.9;;;2.9;;
50651;SDS011;61429;52.086;5.240;2022-07-29T08:11:43;4.3;;;2.6;;
50651;SDS011;61429;52.086;5.240;2022-07-29T08:13:30;3.3;;;2.8;;
50651;SDS011;61429;52.086;5.240;2022-07-29T08:15:16;5.11;;;3.2;;
50651;SDS011;61429;52.086;5.240;2022-07-29T08:17:03;4.2;;;2.8;;
50651;SDS011;61429;52.086;5.240;2022-07-29T08:18:49;5.2;;;3.1;;
50651;SDS011;61429;52.086;5.240;2022-07-29T08:22:23;4.1;;;2.7;;
50651;SDS011;61429;52.086;5.240;2022-07-29T08:25:13;4.8;;;3.0;;
50651;SDS011;61429;52.086;5.240;2022-07-29T08:26:59;4.91;;;2.7;;
50651;SDS011;61429;52.086;5.240;2022-07-29T08:30:33;4.1;;;2.5;;
50651;SDS011;61429;52.086;5.240;2022-07-29T08:32:20;5.5;;;2.8;;
50651;SDS011;61429;52.086;5.240;2022-07-29T08:34:08;4.41;;;2.6;;
50651;SDS011;61429;52.086;5.240;2022-07-29T08:35:55;4.91;;;2.6;;
50651;SDS011;61429;52.086;5.240;2022-07-29T08:37:42;4.8;;;2.8;;
50651;SDS011;61429;52.086;5.240;2022-07-29T08:41:15;4.7;;;2.5;;
50651;SDS011;61429;52.086;5.240;2022-07-29T08:43:04;3.5;;;2.4;;
50651;SDS011;61429;52.086;5.240;2022-07-29T08:44:53;4.2;;;2.4;;
50651;SDS011;61429;52.086;5.240;2022-07-29T08:46:41;4.8;;;2.7;;
50651;SDS011;61429;52.086;5.240;2022-07-29T08:48:28;4.91;;;2.7;;
50651;SDS011;61429;52.086;5.240;2022-07-29T08:50:15;4.0;;;2.7;;
50651;SDS011;61429;52.086;5.240;2022-07-29T08:53:49;4.5;;;2.9;;
50651;SDS011;61429;52.086;5.240;2022-07-29T08:55:38;3.8;;;2.9;;
50651;SDS011;61429;52.086;5.240;2022-07-29T08:57:26;4.61;;;2.7;;
50651;SDS011;61429;52.086;5.240;2022-07-29T08:59:13;6.0;;;2.6;;
50651;SDS011;61429;52.086;5.240;2022-07-29T09:01:01;4.61;;;2.7;;
50651;SDS011;61429;52.086;5.240;2022-07-29T09:02:50;4.61;;;2.6;;
50651;SDS011;61429;52.086;5.240;2022-07-29T09:04:42;5.2;;;3.1;;
50651;SDS011;61429;52.086;5.240;2022-07-29T09:08:23;4.91;;;2.7;;
50651;SDS011;61429;52.086;5.240;2022-07-29T09:10:10;5.3;;;2.7;;
50651;SDS011;61429;52.086;5.240;2022-07-29T09:11:56;4.8;;;2.8;;
50651;SDS011;61429;52.086;5.240;2022-07-29T09:13:46;4.5;;;2.9;;
50651;SDS011;61429;52.086;5.240;2022-07-29T09:15:32;4.0;;;2.7;;
50651;SDS011;61429;52.086;5.240;2022-07-29T09:17:33;4.2;;;2.8;;
50651;SDS011;61429;52.086;5.240;2022-07-29T09:19:27;7.1;;;3.0;;
50651;SDS011;61429;52.086;5.240;2022-07-29T09:24:15;3.7;;;2.6;;
50651;SDS011;61429;52.086;5.240;2022-07-29T09:26:04;4.91;;;2.8;;
50651;SDS011;61429;52.086;5.240;2022-07-29T09:27:51;4.91;;;2.7;;
50651;SDS011;61429;52.086;5.240;2022-07-29T09:31:31;5.7;;;2.6;;
50651;SDS011;61429;52.086;5.240;2022-07-29T09:33:20;5.8;;;2.7;;
50651;SDS011;61429;52.086;5.240;2022-07-29T09:35:16;4.5;;;2.6;;
50651;SDS011;61429;52.086;5.240;2022-07-29T09:37:05;5.5;;;2.6;;
50651;SDS011;61429;52.086;5.240;2022-07-29T09:38:56;4.7;;;2.7;;
50651;SDS011;61429;52.086;5.240;2022-07-29T09:40:44;6.2;;;3.0;;
50651;SDS011;61429;52.086;5.240;2022-07-29T09:42:43;4.5;;;2.7;;
50651;SDS011;61429;52.086;5.240;2022-07-29T09:44:46;4.7;;;2.6;;
50651;SDS011;61429;52.086;5.240;2022-07-29T09:46:34;4.41;;;3.0;;
50651;SDS011;61429;52.086;5.240;2022-07-29T09:50:10;3.2;;;2.5;;
50651;SDS011;61429;52.086;5.240;2022-07-29T09:51:59;5.0;;;2.8;;
50651;SDS011;61429;52.086;5.240;2022-07-29T09:53:50;3.9;;;2.31;;
50651;SDS011;61429;52.086;5.240;2022-07-29T09:55:52;5.8;;;2.8;;
50651;SDS011;61429;52.086;5.240;2022-07-29T09:57:39;4.91;;;2.5;;
50651;SDS011;61429;52.086;5.240;2022-07-29T09:59:26;4.2;;;2.4;;
50651;SDS011;61429;52.086;5.240;2022-07-29T10:01:12;4.61;;;2.4;;
50651;SDS011;61429;52.086;5.240;2022-07-29T10:04:47;3.9;;;2.21;;
50651;SDS011;61429;52.086;5.240;2022-07-29T10:06:34;6.4;;;2.5;;
50651;SDS011;61429;52.086;5.240;2022-07-29T10:08:41;6.2;;;2.9;;
50651;SDS011;61429;52.086;5.240;2022-07-29T10:10:29;3.2;;;2.4;;
50651;SDS011;61429;52.086;5.240;2022-07-29T10:12:18;5.11;;;2.31;;
50651;SDS011;61429;52.086;5.240;2022-07-29T10:14:04;3.8;;;2.31;;
50651;SDS011;61429;52.086;5.240;2022-07-29T10:15:52;5.2;;;2.21;;
50651;SDS011;61429;52.086;5.240;2022-07-29T10:19:27;4.91;;;2.6;;
50651;SDS011;61429;52.086;5.240;2022-07-29T10:21:15;4.91;;;2.4;;
50651;SDS011;61429;52.086;5.240;2022-07-29T10:23:02;3.8;;;2.1;;
50651;SDS011;61429;52.086;5.240;2022-07-29T10:24:51;4.5;;;2.31;;
50651;SDS011;61429;52.086;5.240;2022-07-29T10:26:40;4.5;;;2.31;;
50651;SDS011;61429;52.086;5.240;2022-07-29T10:28:29;3.2;;;2.1;;
50651;SDS011;61429;52.086;5.240;2022-07-29T10:32:10;3.6;;;2.21;;
50651;SDS011;61429;52.086;5.240;2022-07-29T10:34:07;3.9;;;2.21;;
50651;SDS011;61429;52.086;5.240;2022-07-29T10:36:08;4.8;;;2.1;;
50651;SDS011;61429;52.086;5.240;2022-07-29T10:38:14;5.11;;;2.31;;
50651;SDS011;61429;52.086;5.240;2022-07-29T10:41:59;6.2;;;2.6;;
50651;SDS011;61429;52.086;5.240;2022-07-29T10:43:57;7.4;;;2.1;;
50651;SDS011;61429;52.086;5.240;2022-07-29T10:45:47;4.8;;;2.7;;
50651;SDS011;61429;52.086;5.240;2022-07-29T10:47:36;4.1;;;2.21;;
50651;SDS011;61429;52.086;5.240;2022-07-29T10:49:22;3.8;;;2.0;;
50651;SDS011;61429;52.086;5.240;2022-07-29T10:52:57;6.0;;;2.21;;
50651;SDS011;61429;52.086;5.240;2022-07-29T10:54:47;4.1;;;2.0;;
50651;SDS011;61429;52.086;5.240;2022-07-29T10:56:36;4.5;;;2.1;;
50651;SDS011;61429;52.086;5.240;2022-07-29T10:58:23;3.9;;;2.1;;
50651;SDS011;61429;52.086;5.240;2022-07-29T11:00:27;4.41;;;2.31;;
50651;SDS011;61429;52.086;5.240;2022-07-29T11:02:50;4.8;;;2.0;;
50651;SDS011;61429;52.086;5.240;2022-07-29T11:05:08;5.11;;;2.4;;
50651;SDS011;61429;52.086;5.240;2022-07-29T11:07:08;6.4;;;2.31;;
50651;SDS011;61429;52.086;5.240;2022-07-29T11:09:28;5.2;;;2.31;;
50651;SDS011;61429;52.086;5.240;2022-07-29T11:13:55;3.8;;;2.21;;
50651;SDS011;61429;52.086;5.240;2022-07-29T11:15:51;4.61;;;2.31;;
50651;SDS011;61429;52.086;5.240;2022-07-29T11:18:03;6.6;;;2.5;;
50651;SDS011;61429;52.086;5.240;2022-07-29T11:19:52;6.2;;;2.5;;
50651;SDS011;61429;52.086;5.240;2022-07-29T11:22:31;5.5;;;2.31;;
50651;SDS011;61429;52.086;5.240;2022-07-29T11:24:21;4.91;;;2.1;;
50651;SDS011;61429;52.086;5.240;2022-07-29T11:26:14;4.0;;;2.21;;
50651;SDS011;61429;52.086;5.240;2022-07-29T11:28:08;4.41;;;2.5;;
50651;SDS011;61429;52.086;5.240;2022-07-29T11:30:04;4.2;;;2.31;;
50651;SDS011;61429;52.086;5.240;2022-07-29T11:31:54;4.91;;;2.21;;
50651;SDS011;61429;52.086;5.240;2022-07-29T11:33:56;4.5;;;2.6;;
50651;SDS011;61429;52.086;5.240;2022-07-29T11:35:43;6.6;;;3.0;;
50651;SDS011;61429;52.086;5.240;2022-07-29T11:38:23;5.9;;;2.7;;
50651;SDS011;61429;52.086;5.240;2022-07-29T11:40:13;6.6;;;2.5;;
50651;SDS011;61429;52.086;5.240;2022-07-29T11:43:07;5.5;;;2.8;;
50651;SDS011;61429;52.086;5.240;2022-07-29T11:44:55;4.0;;;2.9;;
50651;SDS011;61429;52.086;5.240;2022-07-29T11:46:43;3.7;;;2.7;;
50651;SDS011;61429;52.086;5.240;2022-07-29T11:48:32;4.5;;;2.7;;
50651;SDS011;61429;52.086;5.240;2022-07-29T11:50:28;7.1;;;2.6;;
50651;SDS011;61429;52.086;5.240;2022-07-29T11:52:18;4.5;;;2.6;;
50651;SDS011;61429;52.086;5.240;2022-07-29T11:54:06;6.7;;;2.31;;
50651;SDS011;61429;52.086;5.240;2022-07-29T11:57:48;5.0;;;2.5;;
50651;SDS011;61429;52.086;5.240;2022-07-29T11:59:38;3.5;;;2.31;;
50651;SDS011;61429;52.086;5.240;2022-07-29T12:01:27;6.0;;;3.0;;
50651;SDS011;61429;52.086;5.240;2022-07-29T12:03:22;5.0;;;2.5;;
50651;SDS011;61429;52.086;5.240;2022-07-29T12:05:10;4.91;;;2.6;;
50651;SDS011;61429;52.086;5.240;2022-07-29T12:06:57;4.61;;;2.8;;
50651;SDS011;61429;52.086;5.240;2022-07-29T12:08:44;5.11;;;2.9;;
50651;SDS011;61429;52.086;5.240;2022-07-29T12:12:18;5.9;;;2.9;;
50651;SDS011;61429;52.086;5.240;2022-07-29T12:14:05;6.2;;;2.7;;
50651;SDS011;61429;52.086;5.240;2022-07-29T12:15:51;6.9;;;2.8;;
50651;SDS011;61429;52.086;5.240;2022-07-29T12:17:39;5.5;;;2.7;;
50651;SDS011;61429;52.086;5.240;2022-07-29T12:19:25;5.7;;;2.7;;
50651;SDS011;61429;52.086;5.240;2022-07-29T12:23:04;5.11;;;2.6;;
50651;SDS011;61429;52.086;5.240;2022-07-29T12:24:52;6.1;;;2.7;;
50651;SDS011;61429;52.086;5.240;2022-07-29T12:26:48;4.41;;;2.6;;
50651;SDS011;61429;52.086;5.240;2022-07-29T12:28:36;5.4;;;2.4;;
50651;SDS011;61429;52.086;5.240;2022-07-29T12:30:23;5.11;;;2.5;;
50651;SDS011;61429;52.086;5.240;2022-07-29T12:32:21;5.6;;;2.6;;
50651;SDS011;61429;52.086;5.240;2022-07-29T12:34:08;4.3;;;2.6;;
50651;SDS011;61429;52.086;5.240;2022-07-29T12:35:57;5.4;;;2.9;;
50651;SDS011;61429;52.086;5.240;2022-07-29T12:39:34;4.7;;;2.7;;
50651;SDS011;61429;52.086;5.240;2022-07-29T12:41:21;5.4;;;2.8;;
50651;SDS011;61429;52.086;5.240;2022-07-29T12:43:10;4.0;;;2.5;;
50651;SDS011;61429;52.086;5.240;2022-07-29T12:44:57;4.8;;;2.7;;
50651;SDS011;61429;52.086;5.240;2022-07-29T12:47:00;4.7;;;2.7;;
50651;SDS011;61429;52.086;5.240;2022-07-29T12:48:50;6.6;;;3.0;;
50651;SDS011;61429;52.086;5.240;2022-07-29T12:50:53;6.2;;;3.1;;
50651;SDS011;61429;52.086;5.240;2022-07-29T12:52:42;5.9;;;3.1;;
50651;SDS011;61429;52.086;5.240;2022-07-29T12:56:17;5.11;;;2.9;;
50651;SDS011;61429;52.086;5.240;2022-07-29T12:58:03;6.4;;;2.8;;
50651;SDS011;61429;52.086;5.240;2022-07-29T12:59:59;6.0;;;3.0;;
50651;SDS011;61429;52.086;5.240;2022-07-29T13:01:50;4.8;;;2.9;;
50651;SDS011;61429;52.086;5.240;2022-07-29T13:03:46;6.4;;;2.8;;
50651;SDS011;61429;52.086;5.240;2022-07-29T13:05:40;5.8;;;2.7;;
50651;SDS011;61429;52.086;5.240;2022-07-29T13:07:30;5.6;;;2.8;;
50651;SDS011;61429;52.086;5.240;2022-07-29T13:11:07;4.8;;;2.6;;
50651;SDS011;61429;52.086;5.240;2022-07-29T13:13:01;4.91;;;2.8;;
50651;SDS011;61429;52.086;5.240;2022-07-29T13:15:12;5.7;;;3.0;;
50651;SDS011;61429;52.086;5.240;2022-07-29T13:17:01;6.1;;;3.5;;
50651;SDS011;61429;52.086;5.240;2022-07-29T13:19:02;7.0;;;3.3;;